sensor_id;sensor_type;location;lat;lon;timestamp;P1;durP1;ratioP1;P2;durP2;ratioP2
62997;SDS011;55949;52.590;7.330;2023-02-17T00:00:31;48.08;;;27.88;;
62997;SDS011;55949;52.590;7.330;2023-02-17T00:01:32;49.17;;;30.35;;
62997;SDS011;55949;52.590;7.330;2023-02-17T00:02:33;51.08;;;28.88;;
62997;SDS011;55949;52.590;7.330;2023-02-17T00:03:34;43.50;;;25.52;;
62997;SDS011;55949;52.590;7.330;2023-02-17T00:04:35;48.15;;;24.48;;
62997;SDS011;55949;52.590;7.330;2023-02-17T00:05:37;48.15;;;28.58;;
62997;SDS011;55949;52.590;7.330;2023-02-17T00:06:39;43.70;;;25.02;;
62997;SDS011;55949;52.590;7.330;2023-02-17T00:07:39;48.53;;;30.52;;
62997;SDS011;55949;52.590;7.330;2023-02-17T00:08:40;43.47;;;26.77;;
62997;SDS011;55949;52.590;7.330;2023-02-17T00:09:41;52.75;;;28.63;;
62997;SDS011;55949;52.590;7.330;2023-02-17T00:10:41;49.25;;;27.42;;
62997;SDS011;55949;52.590;7.330;2023-02-17T00:11:42;51.90;;;29.75;;
62997;SDS011;55949;52.590;7.330;2023-02-17T00:12:43;48.13;;;26.92;;
62997;SDS011;55949;52.590;7.330;2023-02-17T00:13:44;51.55;;;30.52;;
62997;SDS011;55949;52.590;7.330;2023-02-17T00:14:45;53.80;;;30.70;;
62997;SDS011;55949;52.590;7.330;2023-02-17T00:15:45;48.88;;;28.08;;
62997;SDS011;55949;52.590;7.330;2023-02-17T00:16:46;51.25;;;29.40;;
62997;SDS011;55949;52.590;7.330;2023-02-17T00:17:47;51.75;;;29.70;;
62997;SDS011;55949;52.590;7.330;2023-02-17T00:18:51;35.03;;;19.42;;
62997;SDS011;55949;52.590;7.330;2023-02-17T00:19:53;50.47;;;29.67;;
62997;SDS011;55949;52.590;7.330;2023-02-17T00:20:54;47.83;;;27.38;;
62997;SDS011;55949;52.590;7.330;2023-02-17T00:21:56;49.58;;;28.63;;
62997;SDS011;55949;52.590;7.330;2023-02-17T00:22:58;47.60;;;30.02;;
62997;SDS011;55949;52.590;7.330;2023-02-17T00:23:59;46.80;;;27.52;;
62997;SDS011;55949;52.590;7.330;2023-02-17T00:24:59;49.80;;;26.55;;
62997;SDS011;55949;52.590;7.330;2023-02-17T00:26:03;47.17;;;29.05;;
62997;SDS011;55949;52.590;7.330;2023-02-17T00:27:04;43.90;;;25.75;;
62997;SDS011;55949;52.590;7.330;2023-02-17T00:28:06;48.28;;;28.02;;
62997;SDS011;55949;52.590;7.330;2023-02-17T00:29:06;49.35;;;28.73;;
62997;SDS011;55949;52.590;7.330;2023-02-17T00:30:07;48.85;;;27.88;;
62997;SDS011;55949;52.590;7.330;2023-02-17T00:31:09;49.53;;;29.65;;
62997;SDS011;55949;52.590;7.330;2023-02-17T00:32:14;48.60;;;27.35;;
62997;SDS011;55949;52.590;7.330;2023-02-17T00:33:15;46.72;;;26.38;;
62997;SDS011;55949;52.590;7.330;2023-02-17T00:34:16;47.15;;;27.02;;
62997;SDS011;55949;52.590;7.330;2023-02-17T00:35:17;45.63;;;27.05;;
62997;SDS011;55949;52.590;7.330;2023-02-17T00:36:18;40.85;;;24.08;;
62997;SDS011;55949;52.590;7.330;2023-02-17T00:37:19;44.03;;;27.05;;
62997;SDS011;55949;52.590;7.330;2023-02-17T00:38:19;48.22;;;27.23;;
62997;SDS011;55949;52.590;7.330;2023-02-17T00:39:20;48.63;;;28.77;;
62997;SDS011;55949;52.590;7.330;2023-02-17T00:40:21;49.63;;;26.65;;
62997;SDS011;55949;52.590;7.330;2023-02-17T00:41:22;43.58;;;26.02;;
62997;SDS011;55949;52.590;7.330;2023-02-17T00:42:23;45.00;;;24.13;;
62997;SDS011;55949;52.590;7.330;2023-02-17T00:43:24;47.38;;;27.08;;
62997;SDS011;55949;52.590;7.330;2023-02-17T00:44:25;38.67;;;22.02;;
62997;SDS011;55949;52.590;7.330;2023-02-17T00:45:26;43.63;;;26.08;;
62997;SDS011;55949;52.590;7.330;2023-02-17T00:46:26;36.75;;;21.65;;
62997;SDS011;55949;52.590;7.330;2023-02-17T00:47:27;45.33;;;26.48;;
62997;SDS011;55949;52.590;7.330;2023-02-17T00:48:28;45.95;;;25.92;;
62997;SDS011;55949;52.590;7.330;2023-02-17T00:49:29;46.28;;;25.30;;
62997;SDS011;55949;52.590;7.330;2023-02-17T00:50:30;48.00;;;28.55;;
62997;SDS011;55949;52.590;7.330;2023-02-17T00:51:31;46.17;;;26.00;;
62997;SDS011;55949;52.590;7.330;2023-02-17T00:52:31;48.47;;;27.20;;
62997;SDS011;55949;52.590;7.330;2023-02-17T00:53:32;43.88;;;24.88;;
62997;SDS011;55949;52.590;7.330;2023-02-17T00:54:33;41.28;;;24.05;;
62997;SDS011;55949;52.590;7.330;2023-02-17T00:55:33;49.80;;;27.13;;
62997;SDS011;55949;52.590;7.330;2023-02-17T00:56:34;48.67;;;27.65;;
62997;SDS011;55949;52.590;7.330;2023-02-17T00:57:34;45.47;;;26.45;;
62997;SDS011;55949;52.590;7.330;2023-02-17T00:58:35;45.38;;;25.73;;
62997;SDS011;55949;52.590;7.330;2023-02-17T00:59:37;46.95;;;26.63;;
62997;SDS011;55949;52.590;7.330;2023-02-17T01:00:37;39.95;;;23.85;;
62997;SDS011;55949;52.590;7.330;2023-02-17T01:01:38;41.88;;;23.00;;
62997;SDS011;55949;52.590;7.330;2023-02-17T01:02:39;41.28;;;24.15;;
62997;SDS011;55949;52.590;7.330;2023-02-17T01:03:40;35.78;;;21.23;;
62997;SDS011;55949;52.590;7.330;2023-02-17T01:04:41;42.28;;;23.17;;
62997;SDS011;55949;52.590;7.330;2023-02-17T01:05:42;43.97;;;25.48;;
62997;SDS011;55949;52.590;7.330;2023-02-17T01:06:45;41.92;;;24.65;;
62997;SDS011;55949;52.590;7.330;2023-02-17T01:07:45;38.20;;;23.05;;
62997;SDS011;55949;52.590;7.330;2023-02-17T01:08:46;40.88;;;24.75;;
62997;SDS011;55949;52.590;7.330;2023-02-17T01:09:47;38.55;;;23.67;;
62997;SDS011;55949;52.590;7.330;2023-02-17T01:10:48;36.28;;;20.88;;
62997;SDS011;55949;52.590;7.330;2023-02-17T01:11:49;38.20;;;22.67;;
62997;SDS011;55949;52.590;7.330;2023-02-17T01:12:50;38.50;;;22.80;;
62997;SDS011;55949;52.590;7.330;2023-02-17T01:13:50;36.08;;;21.38;;
62997;SDS011;55949;52.590;7.330;2023-02-17T01:14:51;38.22;;;22.88;;
62997;SDS011;55949;52.590;7.330;2023-02-17T01:15:52;37.38;;;21.48;;
62997;SDS011;55949;52.590;7.330;2023-02-17T01:16:53;38.85;;;23.20;;
62997;SDS011;55949;52.590;7.330;2023-02-17T01:17:53;39.65;;;23.17;;
62997;SDS011;55949;52.590;7.330;2023-02-17T01:18:54;37.65;;;22.20;;
62997;SDS011;55949;52.590;7.330;2023-02-17T01:19:55;35.38;;;22.85;;
62997;SDS011;55949;52.590;7.330;2023-02-17T01:20:56;38.30;;;21.48;;
62997;SDS011;55949;52.590;7.330;2023-02-17T01:21:57;35.65;;;22.23;;
62997;SDS011;55949;52.590;7.330;2023-02-17T01:22:58;32.45;;;19.25;;
62997;SDS011;55949;52.590;7.330;2023-02-17T01:23:59;37.83;;;22.30;;
62997;SDS011;55949;52.590;7.330;2023-02-17T01:25:02;33.03;;;20.60;;
62997;SDS011;55949;52.590;7.330;2023-02-17T01:26:03;40.45;;;22.20;;
62997;SDS011;55949;52.590;7.330;2023-02-17T01:27:04;35.47;;;21.05;;
62997;SDS011;55949;52.590;7.330;2023-02-17T01:28:05;36.88;;;21.40;;
62997;SDS011;55949;52.590;7.330;2023-02-17T01:29:06;39.13;;;23.38;;
62997;SDS011;55949;52.590;7.330;2023-02-17T01:30:07;29.48;;;18.23;;
62997;SDS011;55949;52.590;7.330;2023-02-17T01:31:08;33.35;;;21.33;;
62997;SDS011;55949;52.590;7.330;2023-02-17T01:32:10;32.80;;;20.75;;
62997;SDS011;55949;52.590;7.330;2023-02-17T01:33:11;36.90;;;21.95;;
62997;SDS011;55949;52.590;7.330;2023-02-17T01:34:12;37.05;;;21.33;;
62997;SDS011;55949;52.590;7.330;2023-02-17T01:35:12;32.53;;;20.00;;
62997;SDS011;55949;52.590;7.330;2023-02-17T01:36:15;37.55;;;22.52;;
62997;SDS011;55949;52.590;7.330;2023-02-17T01:37:17;35.83;;;21.33;;
62997;SDS011;55949;52.590;7.330;2023-02-17T01:38:18;36.80;;;20.40;;
62997;SDS011;55949;52.590;7.330;2023-02-17T01:39:18;38.40;;;21.17;;
62997;SDS011;55949;52.590;7.330;2023-02-17T01:40:19;30.70;;;18.58;;
62997;SDS011;55949;52.590;7.330;2023-02-17T01:41:21;33.30;;;20.45;;
62997;SDS011;55949;52.590;7.330;2023-02-17T01:42:26;33.10;;;19.65;;
62997;SDS011;55949;52.590;7.330;2023-02-17T01:43:27;34.97;;;21.05;;
62997;SDS011;55949;52.590;7.330;2023-02-17T01:44:30;35.42;;;20.05;;
62997;SDS011;55949;52.590;7.330;2023-02-17T01:45:36;33.92;;;20.05;;
62997;SDS011;55949;52.590;7.330;2023-02-17T01:46:41;33.05;;;20.65;;
62997;SDS011;55949;52.590;7.330;2023-02-17T01:48:55;29.88;;;19.25;;
62997;SDS011;55949;52.590;7.330;2023-02-17T01:49:56;38.15;;;20.95;;
62997;SDS011;55949;52.590;7.330;2023-02-17T01:51:00;18.50;;;11.95;;
62997;SDS011;55949;52.590;7.330;2023-02-17T01:53:34;36.13;;;20.92;;
62997;SDS011;55949;52.590;7.330;2023-02-17T01:55:58;32.65;;;19.25;;
62997;SDS011;55949;52.590;7.330;2023-02-17T01:56:59;32.28;;;20.15;;
62997;SDS011;55949;52.590;7.330;2023-02-17T01:58:01;32.92;;;18.45;;
62997;SDS011;55949;52.590;7.330;2023-02-17T01:59:08;32.55;;;18.85;;
62997;SDS011;55949;52.590;7.330;2023-02-17T02:00:12;35.20;;;19.92;;
62997;SDS011;55949;52.590;7.330;2023-02-17T02:01:13;31.65;;;17.95;;
62997;SDS011;55949;52.590;7.330;2023-02-17T02:02:15;35.58;;;20.80;;
62997;SDS011;55949;52.590;7.330;2023-02-17T02:03:16;35.05;;;19.95;;
62997;SDS011;55949;52.590;7.330;2023-02-17T02:04:17;34.70;;;19.60;;
62997;SDS011;55949;52.590;7.330;2023-02-17T02:05:20;36.20;;;20.35;;
62997;SDS011;55949;52.590;7.330;2023-02-17T02:06:22;34.08;;;19.92;;
62997;SDS011;55949;52.590;7.330;2023-02-17T02:07:25;33.90;;;18.85;;
62997;SDS011;55949;52.590;7.330;2023-02-17T02:08:33;29.05;;;15.48;;
62997;SDS011;55949;52.590;7.330;2023-02-17T02:09:40;37.42;;;20.60;;
62997;SDS011;55949;52.590;7.330;2023-02-17T02:10:44;33.17;;;19.30;;
62997;SDS011;55949;52.590;7.330;2023-02-17T02:11:49;33.20;;;18.00;;
62997;SDS011;55949;52.590;7.330;2023-02-17T02:12:50;38.47;;;20.42;;
62997;SDS011;55949;52.590;7.330;2023-02-17T02:13:51;32.42;;;17.45;;
62997;SDS011;55949;52.590;7.330;2023-02-17T02:15:03;36.90;;;20.33;;
62997;SDS011;55949;52.590;7.330;2023-02-17T02:16:26;39.60;;;21.83;;
62997;SDS011;55949;52.590;7.330;2023-02-17T02:19:23;33.95;;;18.17;;
62997;SDS011;55949;52.590;7.330;2023-02-17T02:25:48;36.53;;;21.10;;
62997;SDS011;55949;52.590;7.330;2023-02-17T02:36:43;41.63;;;22.38;;
62997;SDS011;55949;52.590;7.330;2023-02-17T02:39:02;39.38;;;20.92;;
62997;SDS011;55949;52.590;7.330;2023-02-17T02:40:08;38.83;;;20.30;;
62997;SDS011;55949;52.590;7.330;2023-02-17T02:41:16;36.00;;;19.95;;
62997;SDS011;55949;52.590;7.330;2023-02-17T02:42:21;39.55;;;21.33;;
62997;SDS011;55949;52.590;7.330;2023-02-17T02:43:24;37.03;;;19.58;;
62997;SDS011;55949;52.590;7.330;2023-02-17T02:44:25;36.58;;;19.48;;
62997;SDS011;55949;52.590;7.330;2023-02-17T02:45:26;37.80;;;19.85;;
62997;SDS011;55949;52.590;7.330;2023-02-17T02:46:27;38.90;;;21.77;;
62997;SDS011;55949;52.590;7.330;2023-02-17T02:48:40;34.25;;;17.73;;
62997;SDS011;55949;52.590;7.330;2023-02-17T02:49:42;34.35;;;19.60;;
62997;SDS011;55949;52.590;7.330;2023-02-17T03:02:15;37.70;;;21.92;;
62997;SDS011;55949;52.590;7.330;2023-02-17T03:07:26;44.03;;;22.13;;
62997;SDS011;55949;52.590;7.330;2023-02-17T03:08:34;39.40;;;21.33;;
62997;SDS011;55949;52.590;7.330;2023-02-17T03:09:50;41.38;;;21.90;;
62997;SDS011;55949;52.590;7.330;2023-02-17T03:10:52;42.00;;;22.45;;
62997;SDS011;55949;52.590;7.330;2023-02-17T03:11:54;38.45;;;21.05;;
62997;SDS011;55949;52.590;7.330;2023-02-17T03:12:57;40.47;;;21.17;;
62997;SDS011;55949;52.590;7.330;2023-02-17T03:14:04;42.92;;;23.00;;
62997;SDS011;55949;52.590;7.330;2023-02-17T03:15:26;38.25;;;21.35;;
62997;SDS011;55949;52.590;7.330;2023-02-17T03:16:30;40.95;;;22.65;;
62997;SDS011;55949;52.590;7.330;2023-02-17T03:17:32;35.45;;;18.17;;
62997;SDS011;55949;52.590;7.330;2023-02-17T03:18:34;44.00;;;24.02;;
62997;SDS011;55949;52.590;7.330;2023-02-17T03:19:35;40.72;;;21.50;;
62997;SDS011;55949;52.590;7.330;2023-02-17T03:20:37;38.08;;;20.92;;
62997;SDS011;55949;52.590;7.330;2023-02-17T03:23:07;33.70;;;18.42;;
62997;SDS011;55949;52.590;7.330;2023-02-17T03:24:08;39.42;;;21.88;;
62997;SDS011;55949;52.590;7.330;2023-02-17T03:25:09;33.05;;;17.13;;
62997;SDS011;55949;52.590;7.330;2023-02-17T03:26:10;35.97;;;20.13;;
62997;SDS011;55949;52.590;7.330;2023-02-17T03:27:10;41.13;;;22.45;;
62997;SDS011;55949;52.590;7.330;2023-02-17T03:28:11;35.58;;;21.15;;
62997;SDS011;55949;52.590;7.330;2023-02-17T03:29:13;40.92;;;21.40;;
62997;SDS011;55949;52.590;7.330;2023-02-17T03:30:13;44.25;;;23.30;;
62997;SDS011;55949;52.590;7.330;2023-02-17T03:31:14;39.47;;;21.10;;
62997;SDS011;55949;52.590;7.330;2023-02-17T03:32:15;37.28;;;20.33;;
62997;SDS011;55949;52.590;7.330;2023-02-17T03:33:16;36.10;;;18.33;;
62997;SDS011;55949;52.590;7.330;2023-02-17T03:34:16;38.53;;;22.33;;
62997;SDS011;55949;52.590;7.330;2023-02-17T03:35:17;40.80;;;22.80;;
62997;SDS011;55949;52.590;7.330;2023-02-17T03:36:18;38.58;;;22.23;;
62997;SDS011;55949;52.590;7.330;2023-02-17T03:37:18;36.38;;;21.63;;
62997;SDS011;55949;52.590;7.330;2023-02-17T03:38:19;36.05;;;21.08;;
62997;SDS011;55949;52.590;7.330;2023-02-17T03:39:20;38.00;;;20.73;;
62997;SDS011;55949;52.590;7.330;2023-02-17T03:40:20;34.55;;;20.55;;
62997;SDS011;55949;52.590;7.330;2023-02-17T03:41:21;38.00;;;21.42;;
62997;SDS011;55949;52.590;7.330;2023-02-17T03:42:22;28.10;;;14.77;;
62997;SDS011;55949;52.590;7.330;2023-02-17T03:43:22;39.95;;;22.48;;
62997;SDS011;55949;52.590;7.330;2023-02-17T03:44:23;37.42;;;22.42;;
62997;SDS011;55949;52.590;7.330;2023-02-17T03:45:24;38.65;;;22.15;;
62997;SDS011;55949;52.590;7.330;2023-02-17T03:46:24;38.05;;;21.98;;
62997;SDS011;55949;52.590;7.330;2023-02-17T03:47:25;35.75;;;20.45;;
62997;SDS011;55949;52.590;7.330;2023-02-17T03:48:26;34.88;;;19.77;;
62997;SDS011;55949;52.590;7.330;2023-02-17T03:49:27;37.10;;;22.13;;
62997;SDS011;55949;52.590;7.330;2023-02-17T03:50:27;36.08;;;21.27;;
62997;SDS011;55949;52.590;7.330;2023-02-17T03:51:28;38.10;;;21.80;;
62997;SDS011;55949;52.590;7.330;2023-02-17T03:52:29;34.38;;;17.05;;
62997;SDS011;55949;52.590;7.330;2023-02-17T03:53:29;33.03;;;19.83;;
62997;SDS011;55949;52.590;7.330;2023-02-17T03:54:30;37.83;;;21.85;;
62997;SDS011;55949;52.590;7.330;2023-02-17T03:55:30;34.78;;;19.60;;
62997;SDS011;55949;52.590;7.330;2023-02-17T03:56:31;33.78;;;20.52;;
62997;SDS011;55949;52.590;7.330;2023-02-17T03:57:32;28.92;;;17.13;;
62997;SDS011;55949;52.590;7.330;2023-02-17T03:58:33;35.00;;;18.88;;
62997;SDS011;55949;52.590;7.330;2023-02-17T03:59:34;36.17;;;21.27;;
62997;SDS011;55949;52.590;7.330;2023-02-17T04:00:36;35.03;;;20.25;;
62997;SDS011;55949;52.590;7.330;2023-02-17T04:01:37;33.45;;;20.75;;
62997;SDS011;55949;52.590;7.330;2023-02-17T04:02:37;36.72;;;21.13;;
62997;SDS011;55949;52.590;7.330;2023-02-17T04:03:39;37.38;;;20.55;;
62997;SDS011;55949;52.590;7.330;2023-02-17T04:04:40;34.33;;;17.60;;
62997;SDS011;55949;52.590;7.330;2023-02-17T04:05:42;31.70;;;16.15;;
62997;SDS011;55949;52.590;7.330;2023-02-17T04:06:43;32.80;;;20.63;;
62997;SDS011;55949;52.590;7.330;2023-02-17T04:07:44;28.35;;;17.00;;
62997;SDS011;55949;52.590;7.330;2023-02-17T04:08:45;33.75;;;20.70;;
62997;SDS011;55949;52.590;7.330;2023-02-17T04:09:45;35.25;;;20.40;;
62997;SDS011;55949;52.590;7.330;2023-02-17T04:10:50;36.00;;;20.02;;
62997;SDS011;55949;52.590;7.330;2023-02-17T04:11:54;33.53;;;19.63;;
62997;SDS011;55949;52.590;7.330;2023-02-17T04:12:55;32.65;;;18.67;;
62997;SDS011;55949;52.590;7.330;2023-02-17T04:13:56;31.70;;;18.95;;
62997;SDS011;55949;52.590;7.330;2023-02-17T04:14:56;31.20;;;18.55;;
62997;SDS011;55949;52.590;7.330;2023-02-17T04:15:57;29.80;;;18.77;;
62997;SDS011;55949;52.590;7.330;2023-02-17T04:16:58;26.77;;;16.95;;
62997;SDS011;55949;52.590;7.330;2023-02-17T04:17:58;31.05;;;18.98;;
62997;SDS011;55949;52.590;7.330;2023-02-17T04:18:59;35.33;;;19.05;;
62997;SDS011;55949;52.590;7.330;2023-02-17T04:20:00;32.13;;;20.48;;
62997;SDS011;55949;52.590;7.330;2023-02-17T04:21:00;33.05;;;17.75;;
62997;SDS011;55949;52.590;7.330;2023-02-17T04:22:01;31.02;;;16.77;;
62997;SDS011;55949;52.590;7.330;2023-02-17T04:23:03;29.13;;;18.55;;
62997;SDS011;55949;52.590;7.330;2023-02-17T04:24:04;31.20;;;19.27;;
62997;SDS011;55949;52.590;7.330;2023-02-17T04:25:05;26.58;;;14.70;;
62997;SDS011;55949;52.590;7.330;2023-02-17T04:26:06;32.30;;;19.08;;
62997;SDS011;55949;52.590;7.330;2023-02-17T04:27:07;30.27;;;19.27;;
62997;SDS011;55949;52.590;7.330;2023-02-17T04:28:08;28.48;;;17.27;;
62997;SDS011;55949;52.590;7.330;2023-02-17T04:29:10;29.90;;;17.40;;
62997;SDS011;55949;52.590;7.330;2023-02-17T04:30:10;32.80;;;18.67;;
62997;SDS011;55949;52.590;7.330;2023-02-17T04:31:12;31.58;;;18.55;;
62997;SDS011;55949;52.590;7.330;2023-02-17T04:32:12;28.30;;;17.02;;
62997;SDS011;55949;52.590;7.330;2023-02-17T04:33:13;31.90;;;18.98;;
62997;SDS011;55949;52.590;7.330;2023-02-17T04:34:15;29.65;;;18.55;;
62997;SDS011;55949;52.590;7.330;2023-02-17T04:35:16;27.75;;;15.27;;
62997;SDS011;55949;52.590;7.330;2023-02-17T04:36:16;31.73;;;17.40;;
62997;SDS011;55949;52.590;7.330;2023-02-17T04:37:17;32.58;;;17.60;;
62997;SDS011;55949;52.590;7.330;2023-02-17T04:38:18;28.20;;;17.63;;
62997;SDS011;55949;52.590;7.330;2023-02-17T04:39:18;31.33;;;17.30;;
62997;SDS011;55949;52.590;7.330;2023-02-17T04:40:19;31.60;;;16.98;;
62997;SDS011;55949;52.590;7.330;2023-02-17T04:41:20;33.22;;;19.13;;
62997;SDS011;55949;52.590;7.330;2023-02-17T04:42:21;30.23;;;18.05;;
62997;SDS011;55949;52.590;7.330;2023-02-17T04:43:22;32.25;;;18.08;;
62997;SDS011;55949;52.590;7.330;2023-02-17T04:44:23;31.77;;;17.60;;
62997;SDS011;55949;52.590;7.330;2023-02-17T04:45:24;28.30;;;16.15;;
62997;SDS011;55949;52.590;7.330;2023-02-17T04:46:25;25.58;;;13.93;;
62997;SDS011;55949;52.590;7.330;2023-02-17T04:47:25;31.65;;;16.95;;
62997;SDS011;55949;52.590;7.330;2023-02-17T04:48:26;26.17;;;15.13;;
62997;SDS011;55949;52.590;7.330;2023-02-17T04:49:27;31.77;;;17.60;;
62997;SDS011;55949;52.590;7.330;2023-02-17T04:50:28;31.80;;;17.00;;
62997;SDS011;55949;52.590;7.330;2023-02-17T04:51:28;28.08;;;14.90;;
62997;SDS011;55949;52.590;7.330;2023-02-17T04:52:29;30.23;;;15.63;;
62997;SDS011;55949;52.590;7.330;2023-02-17T04:53:30;30.55;;;16.45;;
62997;SDS011;55949;52.590;7.330;2023-02-17T04:54:30;28.23;;;14.70;;
62997;SDS011;55949;52.590;7.330;2023-02-17T04:55:31;33.20;;;17.33;;
62997;SDS011;55949;52.590;7.330;2023-02-17T04:56:32;23.30;;;13.40;;
62997;SDS011;55949;52.590;7.330;2023-02-17T04:57:33;31.77;;;18.42;;
62997;SDS011;55949;52.590;7.330;2023-02-17T04:58:33;31.50;;;17.27;;
62997;SDS011;55949;52.590;7.330;2023-02-17T04:59:35;32.60;;;19.00;;
62997;SDS011;55949;52.590;7.330;2023-02-17T05:00:36;32.55;;;18.40;;
62997;SDS011;55949;52.590;7.330;2023-02-17T05:01:36;26.17;;;14.68;;
62997;SDS011;55949;52.590;7.330;2023-02-17T05:02:37;24.52;;;14.90;;
62997;SDS011;55949;52.590;7.330;2023-02-17T05:03:38;23.45;;;12.15;;
62997;SDS011;55949;52.590;7.330;2023-02-17T05:04:38;29.05;;;15.60;;
62997;SDS011;55949;52.590;7.330;2023-02-17T05:05:39;24.80;;;13.57;;
62997;SDS011;55949;52.590;7.330;2023-02-17T05:06:40;25.90;;;14.32;;
62997;SDS011;55949;52.590;7.330;2023-02-17T05:07:41;24.23;;;14.40;;
62997;SDS011;55949;52.590;7.330;2023-02-17T05:08:43;26.17;;;13.85;;
62997;SDS011;55949;52.590;7.330;2023-02-17T05:09:44;22.95;;;13.00;;
62997;SDS011;55949;52.590;7.330;2023-02-17T05:10:44;26.73;;;15.27;;
62997;SDS011;55949;52.590;7.330;2023-02-17T05:11:45;28.08;;;15.40;;
62997;SDS011;55949;52.590;7.330;2023-02-17T05:12:46;29.63;;;15.90;;
62997;SDS011;55949;52.590;7.330;2023-02-17T05:13:46;25.23;;;13.10;;
62997;SDS011;55949;52.590;7.330;2023-02-17T05:14:47;23.25;;;13.05;;
62997;SDS011;55949;52.590;7.330;2023-02-17T05:15:48;21.42;;;11.48;;
62997;SDS011;55949;52.590;7.330;2023-02-17T05:16:48;24.65;;;14.43;;
62997;SDS011;55949;52.590;7.330;2023-02-17T05:17:49;25.77;;;13.07;;
62997;SDS011;55949;52.590;7.330;2023-02-17T05:18:50;25.33;;;14.52;;
62997;SDS011;55949;52.590;7.330;2023-02-17T05:19:51;20.00;;;11.05;;
62997;SDS011;55949;52.590;7.330;2023-02-17T05:20:51;26.20;;;15.00;;
62997;SDS011;55949;52.590;7.330;2023-02-17T05:21:52;28.33;;;15.40;;
62997;SDS011;55949;52.590;7.330;2023-02-17T05:22:53;27.45;;;14.80;;
62997;SDS011;55949;52.590;7.330;2023-02-17T05:23:53;28.27;;;14.85;;
62997;SDS011;55949;52.590;7.330;2023-02-17T05:24:54;24.85;;;14.80;;
62997;SDS011;55949;52.590;7.330;2023-02-17T05:25:55;24.00;;;13.32;;
62997;SDS011;55949;52.590;7.330;2023-02-17T05:26:55;29.23;;;16.25;;
62997;SDS011;55949;52.590;7.330;2023-02-17T05:27:56;30.58;;;16.17;;
62997;SDS011;55949;52.590;7.330;2023-02-17T05:28:57;23.83;;;12.82;;
62997;SDS011;55949;52.590;7.330;2023-02-17T05:29:58;26.15;;;14.57;;
62997;SDS011;55949;52.590;7.330;2023-02-17T05:30:59;26.48;;;15.18;;
62997;SDS011;55949;52.590;7.330;2023-02-17T05:32:00;26.55;;;15.10;;
62997;SDS011;55949;52.590;7.330;2023-02-17T05:33:01;26.48;;;14.50;;
62997;SDS011;55949;52.590;7.330;2023-02-17T05:34:01;26.35;;;14.45;;
62997;SDS011;55949;52.590;7.330;2023-02-17T05:35:02;26.10;;;13.77;;
62997;SDS011;55949;52.590;7.330;2023-02-17T05:36:04;28.00;;;16.15;;
62997;SDS011;55949;52.590;7.330;2023-02-17T05:37:06;26.40;;;14.85;;
62997;SDS011;55949;52.590;7.330;2023-02-17T05:38:07;21.75;;;12.38;;
62997;SDS011;55949;52.590;7.330;2023-02-17T05:39:07;23.25;;;12.85;;
62997;SDS011;55949;52.590;7.330;2023-02-17T05:40:08;28.23;;;16.05;;
62997;SDS011;55949;52.590;7.330;2023-02-17T05:41:10;28.05;;;14.80;;
62997;SDS011;55949;52.590;7.330;2023-02-17T05:42:10;25.23;;;13.07;;
62997;SDS011;55949;52.590;7.330;2023-02-17T05:43:11;23.98;;;13.80;;
62997;SDS011;55949;52.590;7.330;2023-02-17T05:44:12;27.95;;;15.40;;
62997;SDS011;55949;52.590;7.330;2023-02-17T05:45:12;28.02;;;15.07;;
62997;SDS011;55949;52.590;7.330;2023-02-17T05:46:13;24.17;;;14.50;;
62997;SDS011;55949;52.590;7.330;2023-02-17T05:47:14;23.55;;;12.10;;
62997;SDS011;55949;52.590;7.330;2023-02-17T05:48:15;21.30;;;12.25;;
62997;SDS011;55949;52.590;7.330;2023-02-17T05:49:16;26.40;;;14.85;;
62997;SDS011;55949;52.590;7.330;2023-02-17T05:50:16;20.85;;;12.25;;
62997;SDS011;55949;52.590;7.330;2023-02-17T05:51:17;27.10;;;15.82;;
62997;SDS011;55949;52.590;7.330;2023-02-17T05:52:18;28.23;;;15.35;;
62997;SDS011;55949;52.590;7.330;2023-02-17T05:53:19;23.67;;;13.70;;
62997;SDS011;55949;52.590;7.330;2023-02-17T05:54:20;21.48;;;10.88;;
62997;SDS011;55949;52.590;7.330;2023-02-17T05:55:20;21.27;;;13.18;;
62997;SDS011;55949;52.590;7.330;2023-02-17T05:56:21;24.58;;;14.77;;
62997;SDS011;55949;52.590;7.330;2023-02-17T05:57:22;22.90;;;11.65;;
62997;SDS011;55949;52.590;7.330;2023-02-17T05:58:23;22.52;;;12.48;;
62997;SDS011;55949;52.590;7.330;2023-02-17T05:59:23;26.08;;;13.98;;
62997;SDS011;55949;52.590;7.330;2023-02-17T06:00:24;26.67;;;15.40;;
62997;SDS011;55949;52.590;7.330;2023-02-17T06:01:25;26.88;;;14.80;;
62997;SDS011;55949;52.590;7.330;2023-02-17T06:02:26;23.10;;;12.27;;
62997;SDS011;55949;52.590;7.330;2023-02-17T06:03:27;23.25;;;11.73;;
62997;SDS011;55949;52.590;7.330;2023-02-17T06:04:27;24.85;;;13.50;;
62997;SDS011;55949;52.590;7.330;2023-02-17T06:05:28;26.35;;;14.82;;
62997;SDS011;55949;52.590;7.330;2023-02-17T06:06:29;22.58;;;11.93;;
62997;SDS011;55949;52.590;7.330;2023-02-17T06:07:30;20.80;;;11.35;;
62997;SDS011;55949;52.590;7.330;2023-02-17T06:08:31;23.92;;;11.38;;
62997;SDS011;55949;52.590;7.330;2023-02-17T06:09:32;20.13;;;10.35;;
62997;SDS011;55949;52.590;7.330;2023-02-17T06:10:33;30.10;;;14.90;;
62997;SDS011;55949;52.590;7.330;2023-02-17T06:11:34;26.45;;;14.20;;
62997;SDS011;55949;52.590;7.330;2023-02-17T06:12:34;21.63;;;8.82;;
62997;SDS011;55949;52.590;7.330;2023-02-17T06:13:35;26.23;;;13.32;;
62997;SDS011;55949;52.590;7.330;2023-02-17T06:14:36;28.08;;;14.82;;
62997;SDS011;55949;52.590;7.330;2023-02-17T06:15:37;17.17;;;8.40;;
62997;SDS011;55949;52.590;7.330;2023-02-17T06:16:38;25.85;;;14.02;;
62997;SDS011;55949;52.590;7.330;2023-02-17T06:17:39;25.02;;;13.75;;
62997;SDS011;55949;52.590;7.330;2023-02-17T06:18:39;27.08;;;14.43;;
62997;SDS011;55949;52.590;7.330;2023-02-17T06:19:40;29.25;;;15.18;;
62997;SDS011;55949;52.590;7.330;2023-02-17T06:20:41;21.75;;;12.63;;
62997;SDS011;55949;52.590;7.330;2023-02-17T06:21:41;26.90;;;14.98;;
62997;SDS011;55949;52.590;7.330;2023-02-17T06:22:42;22.33;;;11.55;;
62997;SDS011;55949;52.590;7.330;2023-02-17T06:23:43;20.08;;;10.60;;
62997;SDS011;55949;52.590;7.330;2023-02-17T06:24:44;26.90;;;14.20;;
62997;SDS011;55949;52.590;7.330;2023-02-17T06:25:44;26.05;;;13.73;;
62997;SDS011;55949;52.590;7.330;2023-02-17T06:26:45;22.55;;;11.80;;
62997;SDS011;55949;52.590;7.330;2023-02-17T06:27:46;23.55;;;9.40;;
62997;SDS011;55949;52.590;7.330;2023-02-17T06:28:46;23.15;;;10.98;;
62997;SDS011;55949;52.590;7.330;2023-02-17T06:29:47;26.25;;;14.02;;
62997;SDS011;55949;52.590;7.330;2023-02-17T06:30:48;17.50;;;9.43;;
62997;SDS011;55949;52.590;7.330;2023-02-17T06:31:48;20.00;;;9.25;;
62997;SDS011;55949;52.590;7.330;2023-02-17T06:32:49;27.92;;;12.38;;
62997;SDS011;55949;52.590;7.330;2023-02-17T06:33:50;22.73;;;12.35;;
62997;SDS011;55949;52.590;7.330;2023-02-17T06:34:50;15.25;;;8.70;;
62997;SDS011;55949;52.590;7.330;2023-02-17T06:35:51;26.50;;;13.00;;
62997;SDS011;55949;52.590;7.330;2023-02-17T06:36:52;27.15;;;14.88;;
62997;SDS011;55949;52.590;7.330;2023-02-17T06:37:53;23.52;;;11.20;;
62997;SDS011;55949;52.590;7.330;2023-02-17T06:38:54;25.08;;;13.95;;
62997;SDS011;55949;52.590;7.330;2023-02-17T06:39:55;28.02;;;14.27;;